createdAt,value
2022-08-20T00:00:49.925Z,16.55
2022-08-20T00:03:35.891Z,18.48
2022-08-20T00:06:14.031Z,17.17
2022-08-20T00:08:42.067Z,19.17
2022-08-20T00:11:11.196Z,20.15
2022-08-20T00:13:41.946Z,20.17
2022-08-20T00:18:37.051Z,21.08
2022-08-20T00:21:08.409Z,30.77
2022-08-20T00:23:43.698Z,23.48
2022-08-20T00:26:11.837Z,22.95
2022-08-20T00:28:39.209Z,23.50
2022-08-20T00:31:09.253Z,25.33
2022-08-20T00:33:36.939Z,25.30
2022-08-20T00:36:07.097Z,24.42
2022-08-20T00:38:35.239Z,28.83
2022-08-20T00:41:02.084Z,24.75
2022-08-20T00:43:37.143Z,26.98
2022-08-20T00:46:11.112Z,23.17
2022-08-20T00:48:40.824Z,25.70
2022-08-20T00:51:29.908Z,22.90
2022-08-20T00:54:01.968Z,26.67
2022-08-20T00:56:31.002Z,25.10
2022-08-20T00:58:57.619Z,28.42
2022-08-20T01:01:24.446Z,28.70
2022-08-20T01:03:53.534Z,26.55
2022-08-20T01:06:19.982Z,28.02
2022-08-20T01:08:46.945Z,28.35
2022-08-20T01:11:17.077Z,27.58
2022-08-20T01:13:45.736Z,28.42
2022-08-20T01:16:31.328Z,30.02
2022-08-20T01:19:00.344Z,27.23
2022-08-20T01:21:28.423Z,29.60
2022-08-20T01:24:12.411Z,31.35
2022-08-20T01:26:44.990Z,32.05
2022-08-20T01:29:18.339Z,28.77
2022-08-20T01:31:45.453Z,28.10
2022-08-20T01:34:15.275Z,27.90
2022-08-20T01:36:46.587Z,28.90
2022-08-20T01:39:17.363Z,25.33
2022-08-20T01:42:13.031Z,27.85
2022-08-20T01:44:42.504Z,23.73
2022-08-20T01:47:17.397Z,26.77
2022-08-20T01:49:52.145Z,27.42
2022-08-20T01:52:28.588Z,23.80
2022-08-20T01:54:55.415Z,25.58
2022-08-20T01:57:26.644Z,27.92
2022-08-20T01:59:53.664Z,28.08
2022-08-20T02:02:20.259Z,26.20
2022-08-20T02:04:46.801Z,27.90
2022-08-20T02:07:17.433Z,27.25
2022-08-20T02:09:44.390Z,24.60
2022-08-20T02:12:11.303Z,25.70
2022-08-20T02:14:44.991Z,25.60
2022-08-20T02:17:12.864Z,26.83
2022-08-20T02:19:45.831Z,25.08
2022-08-20T02:22:29.600Z,27.00
2022-08-20T02:24:56.453Z,28.05
2022-08-20T02:27:23.716Z,26.67
2022-08-20T02:29:51.417Z,27.08
2022-08-20T02:32:32.290Z,27.15
2022-08-20T02:35:02.223Z,28.35
2022-08-20T02:37:29.417Z,26.38
2022-08-20T02:39:55.926Z,26.60
2022-08-20T02:42:22.478Z,26.45
2022-08-20T02:44:48.925Z,25.55
2022-08-20T02:47:17.082Z,25.60
2022-08-20T02:49:43.575Z,24.70
2022-08-20T02:52:10.081Z,27.27
2022-08-20T02:54:36.669Z,26.80
2022-08-20T02:57:04.584Z,26.27
2022-08-20T02:59:31.380Z,28.15
2022-08-20T03:02:00.534Z,26.33
2022-08-20T03:04:29.491Z,27.08
2022-08-20T03:06:57.163Z,31.90
2022-08-20T03:09:24.265Z,27.08
2022-08-20T03:11:51.221Z,26.13
2022-08-20T03:14:17.692Z,25.67
2022-08-20T03:16:44.158Z,26.50
2022-08-20T03:19:10.640Z,32.63
2022-08-20T03:21:37.169Z,29.65
2022-08-20T03:24:03.953Z,28.75
2022-08-20T03:26:30.404Z,27.65
2022-08-20T03:28:56.959Z,29.33
2022-08-20T03:31:23.669Z,29.92
2022-08-20T03:33:53.549Z,29.30
2022-08-20T03:36:28.081Z,27.92
2022-08-20T03:39:01.984Z,26.33
2022-08-20T03:41:29.003Z,27.23
2022-08-20T03:43:55.804Z,27.00
2022-08-20T03:46:23.510Z,27.27
2022-08-20T03:48:56.681Z,25.65
2022-08-20T03:51:29.748Z,28.25
2022-08-20T03:53:56.840Z,30.10
2022-08-20T03:56:23.499Z,28.65
2022-08-20T03:58:50.214Z,26.75
2022-08-20T04:01:45.308Z,26.80
2022-08-20T04:04:03.762Z,29.63
2022-08-20T04:06:30.477Z,28.65
2022-08-20T04:08:57.275Z,29.52
2022-08-20T04:11:24.363Z,30.50
2022-08-20T04:13:51.089Z,30.23
2022-08-20T04:16:18.046Z,27.13
2022-08-20T04:19:01.647Z,30.00
2022-08-20T04:21:32.618Z,28.98
2022-08-20T04:24:04.426Z,27.48
2022-08-20T04:26:31.933Z,26.38
2022-08-20T04:28:58.527Z,35.20
2022-08-20T04:31:25.571Z,35.50
2022-08-20T04:33:52.685Z,34.63
2022-08-20T04:36:19.687Z,31.48
2022-08-20T04:38:49.690Z,36.78
2022-08-20T04:41:22.752Z,36.08
2022-08-20T04:43:51.590Z,44.35
2022-08-20T04:46:18.117Z,39.95
2022-08-20T04:48:50.528Z,36.47
2022-08-20T04:51:18.667Z,30.83
2022-08-20T04:53:52.037Z,29.10
2022-08-20T04:56:39.612Z,26.52
2022-08-20T04:59:07.330Z,27.80
2022-08-20T05:01:34.540Z,27.50
2022-08-20T05:04:01.105Z,26.55
2022-08-20T05:06:31.796Z,25.23
2022-08-20T05:09:00.142Z,23.85
2022-08-20T05:11:36.067Z,25.02
2022-08-20T05:14:08.753Z,22.90
2022-08-20T05:16:40.284Z,24.25
2022-08-20T05:19:12.135Z,25.52
2022-08-20T05:21:39.471Z,27.08
2022-08-20T05:24:06.710Z,26.25
2022-08-20T05:26:33.557Z,26.75
2022-08-20T05:29:00.090Z,25.65
2022-08-20T05:31:30.927Z,26.15
2022-08-20T05:34:11.729Z,28.38
2022-08-20T05:36:45.448Z,25.38
2022-08-20T05:39:14.435Z,27.75
2022-08-20T05:41:41.181Z,26.90
2022-08-20T05:44:10.849Z,24.48
2022-08-20T05:46:41.005Z,24.50
2022-08-20T05:49:13.645Z,20.73
2022-08-20T05:51:40.199Z,21.02
2022-08-20T05:54:07.480Z,20.48
2022-08-20T05:56:36.102Z,19.27
2022-08-20T05:59:04.974Z,17.08
2022-08-20T06:01:33.013Z,16.23
2022-08-20T06:04:18.737Z,12.85
2022-08-20T06:06:47.149Z,13.20
2022-08-20T06:09:30.966Z,9.90
2022-08-20T06:12:04.267Z,9.77
2022-08-20T06:14:31.609Z,16.27
2022-08-20T06:17:13.358Z,9.55
2022-08-20T06:19:44.276Z,9.68
2022-08-20T06:24:48.537Z,7.60
2022-08-20T06:27:16.458Z,9.63
2022-08-20T06:29:43.493Z,10.93
2022-08-20T06:32:11.425Z,11.60
2022-08-20T06:34:37.918Z,6.00
2022-08-20T06:37:31.366Z,7.22
2022-08-20T06:42:29.946Z,6.20
2022-08-20T06:44:56.509Z,9.18
2022-08-20T06:47:23.510Z,7.40
2022-08-20T06:49:50.424Z,8.27
2022-08-20T06:52:17.273Z,7.90
2022-08-20T06:54:45.577Z,8.45
2022-08-20T06:57:12.795Z,10.35
2022-08-20T06:59:39.327Z,8.95
2022-08-20T07:02:05.811Z,10.52
2022-08-20T07:04:32.397Z,10.73
2022-08-20T07:06:59.353Z,8.13
2022-08-20T07:09:27.216Z,11.27
2022-08-20T07:11:53.696Z,10.13
2022-08-20T07:14:20.827Z,13.52
2022-08-20T07:16:47.470Z,12.85
2022-08-20T07:19:14.667Z,14.40
2022-08-20T07:21:41.451Z,17.40
2022-08-20T07:24:09.665Z,14.68
2022-08-20T07:26:36.517Z,15.57
2022-08-20T07:29:03.497Z,19.08
2022-08-20T07:31:48.604Z,16.95
2022-08-20T07:34:15.097Z,19.10
2022-08-20T07:36:41.667Z,20.50
2022-08-20T07:39:08.220Z,22.98
2022-08-20T07:41:36.165Z,18.95
2022-08-20T07:44:02.791Z,18.35
2022-08-20T07:46:31.308Z,22.85
2022-08-20T07:48:58.066Z,23.25
2022-08-20T07:51:24.542Z,23.10
2022-08-20T07:53:51.793Z,22.05
2022-08-20T07:56:24.240Z,23.58
2022-08-20T07:58:55.373Z,21.73
2022-08-20T08:01:29.600Z,23.35
2022-08-20T08:03:57.652Z,23.38
2022-08-20T08:06:29.046Z,23.27
2022-08-20T08:09:05.463Z,22.70
2022-08-20T08:11:34.978Z,22.23
2022-08-20T08:14:05.258Z,20.67
2022-08-20T08:16:32.415Z,18.98
2022-08-20T08:19:01.207Z,25.38
2022-08-20T08:21:29.010Z,21.40
2022-08-20T08:23:56.104Z,20.48
2022-08-20T08:26:22.610Z,18.75
2022-08-20T08:28:49.295Z,21.05
2022-08-20T08:31:15.875Z,20.42
2022-08-20T08:33:43.022Z,20.10
2022-08-20T08:36:12.196Z,20.15
2022-08-20T08:38:42.894Z,18.30
2022-08-20T08:41:20.319Z,18.08
2022-08-20T08:43:49.214Z,18.10
2022-08-20T08:46:22.524Z,16.15
2022-08-20T08:48:53.449Z,14.43
2022-08-20T08:51:58.353Z,15.15
2022-08-20T08:54:28.774Z,13.68
2022-08-20T08:56:55.691Z,14.20
2022-08-20T08:59:23.282Z,17.13
2022-08-20T09:01:57.139Z,12.65
2022-08-20T09:04:37.950Z,18.15
2022-08-20T09:07:10.884Z,13.15
2022-08-20T09:09:41.737Z,14.57
2022-08-20T09:12:11.761Z,11.85
2022-08-20T09:14:38.833Z,12.65
2022-08-20T09:17:06.288Z,12.43
2022-08-20T09:19:33.617Z,12.43
2022-08-20T09:22:07.459Z,10.05
2022-08-20T09:24:33.948Z,11.77
2022-08-20T09:27:00.409Z,11.60
2022-08-20T09:29:27.057Z,12.45
2022-08-20T09:32:04.739Z,10.25
2022-08-20T09:34:34.469Z,10.27
2022-08-20T09:37:00.994Z,10.03
2022-08-20T09:39:27.457Z,11.07
2022-08-20T09:41:53.997Z,11.43
2022-08-20T09:44:20.502Z,9.05
2022-08-20T09:46:46.999Z,10.77
2022-08-20T09:49:13.470Z,9.95
2022-08-20T09:51:39.996Z,9.02
2022-08-20T09:54:06.589Z,9.35
2022-08-20T09:56:34.692Z,7.75
2022-08-20T09:59:02.998Z,9.70
2022-08-20T10:01:29.796Z,8.80
2022-08-20T10:03:56.296Z,7.25
2022-08-20T10:06:22.872Z,7.30
2022-08-20T10:08:50.107Z,7.40
2022-08-20T10:11:17.860Z,8.95
2022-08-20T10:13:44.892Z,7.03
2022-08-20T10:16:11.409Z,10.20
2022-08-20T10:18:37.958Z,12.52
2022-08-20T10:21:10.056Z,7.95
2022-08-20T10:23:36.556Z,9.10
2022-08-20T10:26:03.034Z,7.60
2022-08-20T10:28:29.513Z,8.63
2022-08-20T10:30:55.989Z,8.38
2022-08-20T10:33:22.460Z,7.93
2022-08-20T10:35:48.953Z,6.50
2022-08-20T10:38:17.184Z,8.65
2022-08-20T10:40:52.232Z,4.95
2022-08-20T10:43:19.237Z,5.78
2022-08-20T10:45:45.682Z,7.53
2022-08-20T10:48:12.155Z,6.85
2022-08-20T10:50:38.661Z,6.45
2022-08-20T10:53:05.138Z,4.30
2022-08-20T10:55:31.684Z,6.55
2022-08-20T10:57:58.314Z,6.95
2022-08-20T11:00:25.064Z,6.38
2022-08-20T11:02:51.873Z,5.70
2022-08-20T11:05:18.502Z,5.43
2022-08-20T11:07:54.854Z,5.00
2022-08-20T11:10:27.423Z,5.32
2022-08-20T11:12:54.632Z,6.38
2022-08-20T11:15:21.227Z,2.80
2022-08-20T11:17:47.745Z,5.32
2022-08-20T11:20:16.354Z,5.85
2022-08-20T11:22:42.851Z,3.72
2022-08-20T11:25:10.360Z,4.05
2022-08-20T11:27:44.223Z,4.95
2022-08-20T11:30:14.500Z,2.47
2022-08-20T11:35:38.241Z,2.97
2022-08-20T11:37:55.929Z,2.38
2022-08-20T11:40:23.531Z,3.00
2022-08-20T11:43:13.176Z,3.33
2022-08-20T11:45:37.634Z,2.83
2022-08-20T11:48:04.981Z,2.53
2022-08-20T11:50:31.690Z,2.40
2022-08-20T11:52:58.329Z,5.57
2022-08-20T11:55:28.615Z,6.18
2022-08-20T11:57:59.605Z,2.03
2022-08-20T12:00:32.163Z,3.38
2022-08-20T12:03:01.196Z,3.08
2022-08-20T12:05:29.567Z,3.47
2022-08-20T12:07:57.761Z,3.03
2022-08-20T12:10:26.569Z,3.70
2022-08-20T12:12:53.349Z,2.97
2022-08-20T12:15:20.044Z,4.70
2022-08-20T12:17:46.582Z,3.30
2022-08-20T12:20:15.205Z,2.00
2022-08-20T12:22:42.600Z,2.33
2022-08-20T12:25:09.639Z,3.58
2022-08-20T12:27:37.490Z,2.92
2022-08-20T12:30:14.138Z,1.58
2022-08-20T12:32:42.228Z,1.92
2022-08-20T12:35:10.755Z,1.25
2022-08-20T12:37:37.384Z,4.32
2022-08-20T12:40:08.614Z,1.83
2022-08-20T12:42:35.283Z,3.63
2022-08-20T12:45:02.135Z,1.73
2022-08-20T12:47:34.794Z,3.53
2022-08-20T12:50:08.624Z,2.80
2022-08-20T12:52:35.546Z,2.85
2022-08-20T12:55:02.811Z,3.70
2022-08-20T12:57:35.085Z,2.33
2022-08-20T13:00:10.493Z,2.67
2022-08-20T13:02:38.719Z,1.92
2022-08-20T13:05:06.917Z,3.03
2022-08-20T13:07:34.189Z,2.20
2022-08-20T13:10:01.555Z,5.72
2022-08-20T13:12:28.278Z,2.60
2022-08-20T13:14:54.730Z,2.10
2022-08-20T13:17:24.334Z,4.10
2022-08-20T13:20:08.274Z,1.73
2022-08-20T13:22:34.960Z,1.70
2022-08-20T13:25:01.504Z,3.95
2022-08-20T13:27:27.974Z,5.07
2022-08-20T13:29:58.779Z,3.25
2022-08-20T13:32:25.472Z,1.75
2022-08-20T13:34:51.989Z,2.00
2022-08-20T13:37:25.791Z,3.83
2022-08-20T13:39:53.912Z,1.50
2022-08-20T13:42:20.864Z,2.03
2022-08-20T13:44:48.160Z,10.18
2022-08-20T13:47:15.008Z,1.80
2022-08-20T13:49:41.500Z,3.63
2022-08-20T13:52:08.558Z,3.25
2022-08-20T13:54:35.086Z,4.40
2022-08-20T13:57:19.482Z,1.67
2022-08-20T13:59:48.252Z,3.85
2022-08-20T14:02:16.417Z,1.52
2022-08-20T14:04:43.149Z,2.92
2022-08-20T14:07:15.237Z,3.72
2022-08-20T14:09:44.394Z,2.00
2022-08-20T14:12:13.047Z,1.88
2022-08-20T14:14:40.977Z,1.85
2022-08-20T14:17:24.590Z,1.55
2022-08-20T14:19:54.456Z,4.55
2022-08-20T14:22:23.981Z,2.08
2022-08-20T14:24:50.789Z,1.42
2022-08-20T14:27:20.500Z,2.53
2022-08-20T14:29:48.546Z,2.50
2022-08-20T14:32:15.551Z,2.25
2022-08-20T14:34:42.778Z,3.20
2022-08-20T14:37:10.814Z,3.88
2022-08-20T14:39:37.451Z,1.90
2022-08-20T14:42:04.182Z,1.75
2022-08-20T14:44:30.631Z,1.70
2022-08-20T14:46:57.179Z,2.03
2022-08-20T14:49:23.722Z,3.20
2022-08-20T14:51:50.173Z,1.65
2022-08-20T14:54:16.669Z,1.70
2022-08-20T14:56:43.123Z,1.23
2022-08-20T14:59:09.674Z,3.55
2022-08-20T15:01:36.261Z,5.03
2022-08-20T15:04:03.011Z,1.98
2022-08-20T15:06:31.157Z,1.55
2022-08-20T15:08:57.621Z,4.35
2022-08-20T15:11:24.088Z,2.67
2022-08-20T15:13:50.564Z,1.55
2022-08-20T15:16:17.038Z,5.97
2022-08-20T15:18:43.492Z,1.90
2022-08-20T15:21:10.333Z,2.70
2022-08-20T15:23:37.028Z,1.15
2022-08-20T15:26:03.529Z,1.58
2022-08-20T15:28:29.991Z,1.55
2022-08-20T15:30:56.537Z,1.63
2022-08-20T15:33:23.045Z,2.85
2022-08-20T15:35:49.542Z,1.52
2022-08-20T15:38:16.086Z,3.13
2022-08-20T15:40:42.676Z,1.90
2022-08-20T15:43:09.209Z,3.13
2022-08-20T15:45:36.236Z,1.70
2022-08-20T15:48:15.099Z,2.08
2022-08-20T15:50:52.059Z,2.80
2022-08-20T15:53:39.488Z,1.65
2022-08-20T15:56:24.261Z,3.38
2022-08-20T15:59:08.873Z,2.10
2022-08-20T16:02:04.879Z,1.40
2022-08-20T16:04:40.231Z,1.55
2022-08-20T16:07:13.213Z,1.40
2022-08-20T16:10:21.019Z,3.00
2022-08-20T16:12:51.852Z,2.50
2022-08-20T16:15:24.650Z,1.25
2022-08-20T16:18:05.497Z,1.77
2022-08-20T16:20:41.854Z,1.80
2022-08-20T16:23:09.309Z,4.55
2022-08-20T16:26:02.052Z,3.15
2022-08-20T16:28:39.112Z,2.70
2022-08-20T16:31:10.050Z,4.10
2022-08-20T16:34:33.336Z,1.75
2022-08-20T16:37:10.170Z,10.20
2022-08-20T16:39:49.709Z,4.63
2022-08-20T16:42:20.893Z,3.00
2022-08-20T16:44:49.305Z,2.60
2022-08-20T16:47:42.014Z,2.47
2022-08-20T16:50:16.749Z,2.33
2022-08-20T16:52:47.025Z,2.58
2022-08-20T16:57:40.966Z,2.05
2022-08-20T17:00:29.944Z,2.60
2022-08-20T17:02:59.835Z,2.25
2022-08-20T17:05:31.832Z,1.38
2022-08-20T17:08:03.644Z,3.47
2022-08-20T17:10:37.391Z,1.65
2022-08-20T17:13:13.162Z,1.85
2022-08-20T17:15:43.470Z,2.28
2022-08-20T17:18:24.476Z,3.78
2022-08-20T17:20:51.477Z,6.10
2022-08-20T17:23:20.986Z,2.63
2022-08-20T17:26:01.074Z,3.67
2022-08-20T17:28:31.925Z,1.45
2022-08-20T17:31:01.213Z,1.08
2022-08-20T17:33:36.817Z,4.60
2022-08-20T17:36:20.086Z,2.28
2022-08-20T17:38:49.981Z,3.35
2022-08-20T17:41:34.513Z,2.25
2022-08-20T17:44:04.613Z,2.72
2022-08-20T17:46:34.933Z,6.25
2022-08-20T17:51:38.416Z,13.55
2022-08-20T17:54:28.021Z,7.28
2022-08-20T17:57:00.104Z,5.80
2022-08-20T18:00:01.303Z,6.10
2022-08-20T18:02:23.361Z,3.15
2022-08-20T18:04:53.322Z,3.88
2022-08-20T18:07:33.916Z,3.05
2022-08-20T18:10:14.011Z,4.80
2022-08-20T18:13:01.226Z,2.95
2022-08-20T18:15:50.765Z,5.15
2022-08-20T18:18:24.866Z,4.63
2022-08-20T18:21:15.750Z,2.47
2022-08-20T18:24:12.122Z,2.95
2022-08-20T18:26:58.046Z,4.70
2022-08-20T18:29:32.117Z,2.72
2022-08-20T18:32:02.164Z,3.20
2022-08-20T18:34:28.995Z,5.55
2022-08-20T18:37:02.464Z,5.80
2022-08-20T18:39:30.175Z,4.78
2022-08-20T18:42:21.326Z,4.10
2022-08-20T18:44:51.126Z,8.18
2022-08-20T18:47:42.519Z,4.25
2022-08-20T18:50:28.396Z,2.92
2022-08-20T18:53:21.084Z,6.10
2022-08-20T18:56:01.155Z,8.43
2022-08-20T18:58:47.729Z,3.47
2022-08-20T19:01:14.959Z,5.60
2022-08-20T19:03:50.794Z,3.97
2022-08-20T19:06:32.365Z,3.63
2022-08-20T19:09:11.756Z,4.18
2022-08-20T19:11:57.793Z,5.35
2022-08-20T19:14:39.554Z,4.80
2022-08-20T19:17:11.320Z,5.00
2022-08-20T19:19:38.960Z,8.90
2022-08-20T19:22:06.254Z,3.70
2022-08-20T19:24:35.676Z,4.30
2022-08-20T19:27:07.656Z,4.95
2022-08-20T19:29:37.851Z,7.47
2022-08-20T19:32:07.579Z,4.68
2022-08-20T19:34:35.759Z,9.30
2022-08-20T19:37:35.244Z,4.57
2022-08-20T19:40:07.787Z,3.13
2022-08-20T19:42:42.842Z,3.22
2022-08-20T19:45:18.610Z,7.72
2022-08-20T19:48:11.929Z,2.92
2022-08-20T19:50:56.981Z,3.80
2022-08-20T19:53:30.708Z,3.13
2022-08-20T19:56:04.526Z,4.22
2022-08-20T19:58:32.585Z,3.60
2022-08-20T20:01:02.228Z,3.22
2022-08-20T20:03:35.137Z,3.13
2022-08-20T20:06:18.018Z,6.72
2022-08-20T20:09:00.464Z,4.72
2022-08-20T20:11:32.752Z,5.85
2022-08-20T20:14:10.252Z,6.25
2022-08-20T20:16:38.655Z,6.35
2022-08-20T20:19:25.394Z,5.20
2022-08-20T20:22:20.188Z,6.22
2022-08-20T20:24:56.629Z,3.47
2022-08-20T20:27:26.290Z,5.15
2022-08-20T20:29:59.947Z,3.75
2022-08-20T20:32:27.568Z,4.95
2022-08-20T20:34:58.235Z,3.25
2022-08-20T20:37:49.400Z,4.30
2022-08-20T20:40:26.875Z,4.38
2022-08-20T20:43:21.898Z,5.05
2022-08-20T20:45:58.929Z,6.40
2022-08-20T20:48:27.802Z,4.47
2022-08-20T20:50:59.639Z,4.45
2022-08-20T20:53:47.280Z,6.43
2022-08-20T20:56:35.144Z,3.80
2022-08-20T20:59:06.580Z,5.57
2022-08-20T21:01:45.792Z,4.70
2022-08-20T21:04:18.591Z,4.40
2022-08-20T21:06:45.115Z,16.48
2022-08-20T21:09:12.129Z,4.75
2022-08-20T21:11:38.588Z,6.55
2022-08-20T21:14:05.074Z,3.95
2022-08-20T21:16:31.567Z,7.70
2022-08-20T21:18:58.442Z,6.65
2022-08-20T21:21:25.212Z,10.50
2022-08-20T21:23:51.710Z,6.35
2022-08-20T21:26:18.691Z,6.32
2022-08-20T21:28:45.378Z,6.22
2022-08-20T21:31:12.825Z,6.57
2022-08-20T21:33:39.264Z,6.07
2022-08-20T21:36:06.599Z,7.45
2022-08-20T21:38:33.253Z,8.30
2022-08-20T21:40:59.878Z,5.25
2022-08-20T21:43:26.560Z,3.72
2022-08-20T21:45:53.268Z,7.38
2022-08-20T21:48:20.367Z,6.47
2022-08-20T21:50:46.902Z,5.38
2022-08-20T21:53:13.555Z,7.13
2022-08-20T21:55:40.684Z,6.55
2022-08-20T21:58:07.956Z,7.28
2022-08-20T22:00:58.011Z,6.82
2022-08-20T22:03:29.145Z,10.80
2022-08-20T22:05:58.715Z,6.22
2022-08-20T22:08:28.469Z,8.90
2022-08-20T22:10:57.092Z,7.25
2022-08-20T22:13:25.775Z,6.93
2022-08-20T22:15:52.295Z,8.15
2022-08-20T22:18:18.752Z,10.57
2022-08-20T22:20:45.320Z,8.35
2022-08-20T22:23:12.155Z,7.93
2022-08-20T22:25:39.984Z,6.30
2022-08-20T22:28:07.026Z,8.75
2022-08-20T22:30:34.647Z,8.15
2022-08-20T22:33:07.873Z,8.60
2022-08-20T22:35:35.029Z,6.80
2022-08-20T22:38:01.748Z,16.33
2022-08-20T22:40:28.435Z,6.90
2022-08-20T22:42:55.653Z,7.60
2022-08-20T22:45:22.336Z,9.88
2022-08-20T22:47:48.825Z,8.10
2022-08-20T22:50:24.883Z,9.13
2022-08-20T22:52:52.426Z,8.70
2022-08-20T22:55:19.351Z,9.85
2022-08-20T22:57:46.806Z,8.10
2022-08-20T23:00:16.882Z,7.25
2022-08-20T23:02:49.423Z,8.30
2022-08-20T23:05:20.136Z,7.82
2022-08-20T23:10:20.032Z,8.05
2022-08-20T23:12:46.456Z,6.65
2022-08-20T23:15:14.139Z,9.52
2022-08-20T23:17:40.810Z,9.43
2022-08-20T23:20:10.326Z,7.43
2022-08-20T23:22:36.970Z,9.30
2022-08-20T23:25:08.942Z,9.07
2022-08-20T23:27:41.177Z,8.00
2022-08-20T23:30:08.085Z,9.88
2022-08-20T23:32:34.551Z,9.68
2022-08-20T23:35:01.017Z,8.27
2022-08-20T23:37:27.505Z,7.65
2022-08-20T23:39:54.023Z,10.32
2022-08-20T23:42:20.505Z,8.95
2022-08-20T23:44:46.970Z,9.88
2022-08-20T23:47:19.609Z,10.18
2022-08-20T23:49:46.784Z,12.93
2022-08-20T23:52:13.413Z,12.13
2022-08-20T23:54:40.066Z,14.27
2022-08-20T23:57:08.397Z,13.63
2022-08-20T23:59:35.610Z,14.15
